Thursday, June 21, 2018, 12:00 PM EDT
Back to Local

KLEW, Auburn-lewiston

Location: Auburn, ME, United States Lat: 44.05
Local Time: 12:00 PM EDT (16:00 GMT) Lon: -70.283
Time Zone: US/Eastern Elev: 288 ft

Show me the last for .
Show Decoded

2018-06-21 10:56 METAR KLEW 211456Z AUTO 33009KT 8SM SCT110 22/09 A2979 RMK AO2 SLP101 T02220089
                 51007 =
2018-06-21 09:56 METAR KLEW 211356Z AUTO 34009KT 10SM BKN100 21/12 A2979 RMK AO2 SLP099 T02060117
                 =
2018-06-21 08:56 METAR KLEW 211256Z AUTO 36007KT 10SM OVC100 20/13 A2978 RMK AO2 SLP097 T02000133
                 =
2018-06-21 07:56 METAR KLEW 211156Z AUTO 35006KT 10SM FEW110 19/14 A2977 RMK AO2 SLP093 T01940139
                 10194 20111 53016 =
2018-06-21 06:56 METAR KLEW 211056Z AUTO 00000KT 10SM CLR 16/13 A2976 RMK AO2 SLP088 T01610128
                 TSNO =
2018-06-21 05:56 METAR KLEW 210956Z AUTO 00000KT 10SM OVC110 14/12 A2974 RMK AO2 SLP082 T01390117
                 =
2018-06-21 04:56 METAR KLEW 210856Z AUTO 01003KT 10SM CLR 14/12 A2972 RMK AO2 SLP078 T01440117
                 53001 =
2018-06-21 03:56 METAR KLEW 210756Z AUTO 00000KT 8SM CLR 13/11 A2971 RMK AO2 SLP074 T01280111 =
2018-06-21 02:56 METAR KLEW 210656Z AUTO 00000KT 10SM CLR 13/11 A2972 RMK AO2 SLP076 T01280111 =
2018-06-21 01:56 METAR KLEW 210556Z AUTO 00000KT 10SM CLR 13/11 A2972 RMK AO2 SLP077 T01280111
                 10239 20122 58000 =
2018-06-21 00:56 METAR KLEW 210456Z AUTO 00000KT 10SM CLR 14/12 A2972 RMK AO2 SLP077 T01390117 =
2018-06-20 23:56 METAR KLEW 210356Z AUTO 00000KT 10SM CLR 14/12 A2972 RMK AO2 SLP077 T01390117
                 402670067 =
2018-06-20 22:56 METAR KLEW 210256Z AUTO 00000KT 10SM CLR 14/12 A2972 RMK AO2 SLP077 T01440122
                 50005 =
2018-06-20 21:56 METAR KLEW 210156Z AUTO 00000KT 10SM CLR 17/12 A2973 RMK AO2 SLP079 T01670117 =
2018-06-20 20:56 METAR KLEW 210056Z AUTO 00000KT 10SM CLR 19/12 A2972 RMK AO2 SLP076 T01940117 =
2018-06-20 19:56 METAR KLEW 202356Z AUTO 25004KT 10SM CLR 24/11 A2971 RMK AO2 SLP071 T02390111
                 10267 20239 56006 =
2018-06-20 18:56 METAR KLEW 202256Z AUTO VRB06KT 10SM CLR 26/10 A2971 RMK AO2 SLP073 T02560100 =
2018-06-20 17:56 METAR KLEW 202156Z AUTO 22007KT 190V260 10SM CLR 26/11 A2971 RMK AO2 SLP074
                 T02610106 =
2018-06-20 16:56 METAR KLEW 202056Z AUTO 21009KT 10SM CLR 26/11 A2973 RMK AO2 SLP079 T02560111
                 58014 =
2018-06-20 15:56 METAR KLEW 201956Z AUTO 22008KT 10SM CLR 26/10 A2974 RMK AO2 SLP085 T02560100
                 TSNO =
2018-06-20 14:56 METAR KLEW 201856Z AUTO 23008G15KT 200V270 10SM CLR 26/10 A2976 RMK AO2 SLP090
                 T02610100 =
2018-06-20 13:56 METAR KLEW 201756Z AUTO 23010G16KT 10SM CLR 26/10 A2977 RMK AO2 SLP092 T02560100
                 10256 20178 58022 =
2018-06-20 12:56 METAR KLEW 201656Z AUTO 22012KT 10SM CLR 26/09 A2979 RMK AO2 SLP100 T02560089 =

Support USWX by starting your Amazon purchase here.